sensor_id;sensor_type;location;lat;lon;timestamp;P1;durP1;ratioP1;P2;durP2;ratioP2
8474;SDS011;4274;52.012;8.448;2023-04-06T00:01:39;44.63;;;5.90;;
8474;SDS011;4274;52.012;8.448;2023-04-06T00:04:05;46.90;;;5.53;;
8474;SDS011;4274;52.012;8.448;2023-04-06T00:06:31;44.40;;;6.20;;
8474;SDS011;4274;52.012;8.448;2023-04-06T00:08:58;45.40;;;5.83;;
8474;SDS011;4274;52.012;8.448;2023-04-06T00:11:25;47.93;;;6.57;;
8474;SDS011;4274;52.012;8.448;2023-04-06T00:13:50;44.00;;;6.07;;
8474;SDS011;4274;52.012;8.448;2023-04-06T00:16:16;44.07;;;6.00;;
8474;SDS011;4274;52.012;8.448;2023-04-06T00:18:42;48.20;;;6.20;;
8474;SDS011;4274;52.012;8.448;2023-04-06T00:21:07;44.00;;;6.40;;
8474;SDS011;4274;52.012;8.448;2023-04-06T00:23:36;44.67;;;6.20;;
8474;SDS011;4274;52.012;8.448;2023-04-06T00:26:01;43.83;;;5.93;;
8474;SDS011;4274;52.012;8.448;2023-04-06T00:28:27;45.37;;;6.07;;
8474;SDS011;4274;52.012;8.448;2023-04-06T00:30:54;43.57;;;6.17;;
8474;SDS011;4274;52.012;8.448;2023-04-06T00:33:20;44.67;;;6.30;;
8474;SDS011;4274;52.012;8.448;2023-04-06T00:35:46;45.60;;;5.43;;
8474;SDS011;4274;52.012;8.448;2023-04-06T00:38:12;42.20;;;5.20;;
8474;SDS011;4274;52.012;8.448;2023-04-06T00:40:38;43.80;;;5.47;;
8474;SDS011;4274;52.012;8.448;2023-04-06T00:43:05;43.40;;;5.70;;
8474;SDS011;4274;52.012;8.448;2023-04-06T00:45:32;48.30;;;5.60;;
8474;SDS011;4274;52.012;8.448;2023-04-06T00:47:58;44.70;;;5.93;;
8474;SDS011;4274;52.012;8.448;2023-04-06T00:50:24;47.10;;;6.10;;
8474;SDS011;4274;52.012;8.448;2023-04-06T00:52:50;42.70;;;5.13;;
8474;SDS011;4274;52.012;8.448;2023-04-06T00:55:15;46.33;;;5.90;;
8474;SDS011;4274;52.012;8.448;2023-04-06T00:57:41;45.00;;;5.97;;
8474;SDS011;4274;52.012;8.448;2023-04-06T01:00:07;47.63;;;5.97;;
8474;SDS011;4274;52.012;8.448;2023-04-06T01:02:33;44.37;;;5.77;;
8474;SDS011;4274;52.012;8.448;2023-04-06T01:04:59;44.07;;;6.10;;
8474;SDS011;4274;52.012;8.448;2023-04-06T01:07:25;44.67;;;5.80;;
8474;SDS011;4274;52.012;8.448;2023-04-06T01:09:52;43.70;;;5.87;;
8474;SDS011;4274;52.012;8.448;2023-04-06T01:12:18;44.93;;;6.20;;
8474;SDS011;4274;52.012;8.448;2023-04-06T01:14:44;44.20;;;5.77;;
8474;SDS011;4274;52.012;8.448;2023-04-06T01:17:10;45.40;;;6.00;;
8474;SDS011;4274;52.012;8.448;2023-04-06T01:19:36;44.67;;;6.20;;
8474;SDS011;4274;52.012;8.448;2023-04-06T01:22:02;44.77;;;6.93;;
8474;SDS011;4274;52.012;8.448;2023-04-06T01:24:27;48.43;;;6.60;;
8474;SDS011;4274;52.012;8.448;2023-04-06T01:26:54;45.53;;;6.30;;
8474;SDS011;4274;52.012;8.448;2023-04-06T01:29:21;46.17;;;5.70;;
8474;SDS011;4274;52.012;8.448;2023-04-06T01:31:46;45.60;;;6.70;;
8474;SDS011;4274;52.012;8.448;2023-04-06T01:34:12;46.03;;;6.40;;
8474;SDS011;4274;52.012;8.448;2023-04-06T01:36:38;42.77;;;5.37;;
8474;SDS011;4274;52.012;8.448;2023-04-06T01:39:03;45.00;;;6.27;;
8474;SDS011;4274;52.012;8.448;2023-04-06T01:41:29;46.27;;;6.23;;
8474;SDS011;4274;52.012;8.448;2023-04-06T01:43:55;42.60;;;6.10;;
8474;SDS011;4274;52.012;8.448;2023-04-06T01:46:20;45.20;;;5.63;;
8474;SDS011;4274;52.012;8.448;2023-04-06T01:48:46;50.13;;;6.47;;
8474;SDS011;4274;52.012;8.448;2023-04-06T01:51:11;46.03;;;6.30;;
8474;SDS011;4274;52.012;8.448;2023-04-06T01:53:37;44.07;;;6.10;;
8474;SDS011;4274;52.012;8.448;2023-04-06T01:56:03;46.17;;;6.80;;
8474;SDS011;4274;52.012;8.448;2023-04-06T01:58:28;48.43;;;6.70;;
8474;SDS011;4274;52.012;8.448;2023-04-06T02:00:54;45.07;;;6.40;;
8474;SDS011;4274;52.012;8.448;2023-04-06T02:03:20;47.37;;;6.07;;
8474;SDS011;4274;52.012;8.448;2023-04-06T02:05:46;48.33;;;7.00;;
8474;SDS011;4274;52.012;8.448;2023-04-06T02:08:11;45.57;;;5.83;;
8474;SDS011;4274;52.012;8.448;2023-04-06T02:10:37;59.83;;;6.53;;
8474;SDS011;4274;52.012;8.448;2023-04-06T02:13:02;46.07;;;6.67;;
8474;SDS011;4274;52.012;8.448;2023-04-06T02:15:28;43.33;;;5.77;;
8474;SDS011;4274;52.012;8.448;2023-04-06T02:17:54;46.50;;;6.57;;
8474;SDS011;4274;52.012;8.448;2023-04-06T02:20:19;43.73;;;6.00;;
8474;SDS011;4274;52.012;8.448;2023-04-06T02:22:45;45.53;;;6.50;;
8474;SDS011;4274;52.012;8.448;2023-04-06T02:25:11;46.47;;;5.80;;
8474;SDS011;4274;52.012;8.448;2023-04-06T02:27:36;44.33;;;6.20;;
8474;SDS011;4274;52.012;8.448;2023-04-06T02:30:03;44.37;;;5.90;;
8474;SDS011;4274;52.012;8.448;2023-04-06T02:32:29;47.70;;;6.70;;
8474;SDS011;4274;52.012;8.448;2023-04-06T02:34:55;50.07;;;6.80;;
8474;SDS011;4274;52.012;8.448;2023-04-06T02:37:20;43.33;;;6.50;;
8474;SDS011;4274;52.012;8.448;2023-04-06T02:39:47;45.70;;;6.27;;
8474;SDS011;4274;52.012;8.448;2023-04-06T02:42:12;43.73;;;5.90;;
8474;SDS011;4274;52.012;8.448;2023-04-06T02:44:40;45.97;;;6.90;;
8474;SDS011;4274;52.012;8.448;2023-04-06T02:47:06;45.30;;;6.63;;
8474;SDS011;4274;52.012;8.448;2023-04-06T02:49:32;45.30;;;6.67;;
8474;SDS011;4274;52.012;8.448;2023-04-06T02:51:57;44.93;;;6.40;;
8474;SDS011;4274;52.012;8.448;2023-04-06T02:54:23;45.30;;;6.37;;
8474;SDS011;4274;52.012;8.448;2023-04-06T02:56:48;44.87;;;6.57;;
8474;SDS011;4274;52.012;8.448;2023-04-06T02:59:14;46.10;;;6.83;;
8474;SDS011;4274;52.012;8.448;2023-04-06T03:01:39;45.30;;;6.13;;
8474;SDS011;4274;52.012;8.448;2023-04-06T03:04:05;47.70;;;6.50;;
8474;SDS011;4274;52.012;8.448;2023-04-06T03:06:31;43.87;;;6.50;;
8474;SDS011;4274;52.012;8.448;2023-04-06T03:08:56;43.33;;;5.80;;
8474;SDS011;4274;52.012;8.448;2023-04-06T03:11:22;43.70;;;6.23;;
8474;SDS011;4274;52.012;8.448;2023-04-06T03:13:47;61.13;;;6.97;;
8474;SDS011;4274;52.012;8.448;2023-04-06T03:16:13;47.03;;;6.77;;
8474;SDS011;4274;52.012;8.448;2023-04-06T03:18:38;43.27;;;6.20;;
8474;SDS011;4274;52.012;8.448;2023-04-06T03:21:04;45.70;;;6.50;;
8474;SDS011;4274;52.012;8.448;2023-04-06T03:23:30;47.37;;;6.73;;
8474;SDS011;4274;52.012;8.448;2023-04-06T03:25:55;43.40;;;6.10;;
8474;SDS011;4274;52.012;8.448;2023-04-06T03:28:21;47.90;;;7.20;;
8474;SDS011;4274;52.012;8.448;2023-04-06T03:30:46;43.90;;;6.60;;
8474;SDS011;4274;52.012;8.448;2023-04-06T03:33:12;45.60;;;6.20;;
8474;SDS011;4274;52.012;8.448;2023-04-06T03:35:38;45.43;;;6.00;;
8474;SDS011;4274;52.012;8.448;2023-04-06T03:38:03;46.30;;;6.77;;
8474;SDS011;4274;52.012;8.448;2023-04-06T03:40:32;44.63;;;6.20;;
8474;SDS011;4274;52.012;8.448;2023-04-06T03:42:58;43.37;;;5.83;;
8474;SDS011;4274;52.012;8.448;2023-04-06T03:45:24;50.10;;;6.83;;
8474;SDS011;4274;52.012;8.448;2023-04-06T03:47:50;44.90;;;6.60;;
8474;SDS011;4274;52.012;8.448;2023-04-06T03:50:15;46.67;;;6.67;;
8474;SDS011;4274;52.012;8.448;2023-04-06T03:52:41;46.00;;;6.40;;
8474;SDS011;4274;52.012;8.448;2023-04-06T03:55:07;46.17;;;6.53;;
8474;SDS011;4274;52.012;8.448;2023-04-06T03:57:33;44.30;;;6.17;;
8474;SDS011;4274;52.012;8.448;2023-04-06T03:59:58;48.00;;;7.13;;
8474;SDS011;4274;52.012;8.448;2023-04-06T04:02:24;44.87;;;6.40;;
8474;SDS011;4274;52.012;8.448;2023-04-06T04:04:50;47.17;;;6.90;;
8474;SDS011;4274;52.012;8.448;2023-04-06T04:07:15;44.87;;;7.00;;
8474;SDS011;4274;52.012;8.448;2023-04-06T04:09:41;45.47;;;6.60;;
8474;SDS011;4274;52.012;8.448;2023-04-06T04:12:07;46.90;;;6.30;;
8474;SDS011;4274;52.012;8.448;2023-04-06T04:14:32;45.50;;;6.20;;
8474;SDS011;4274;52.012;8.448;2023-04-06T04:16:58;46.63;;;6.90;;
8474;SDS011;4274;52.012;8.448;2023-04-06T04:19:23;45.37;;;6.60;;
8474;SDS011;4274;52.012;8.448;2023-04-06T04:21:49;45.50;;;6.63;;
8474;SDS011;4274;52.012;8.448;2023-04-06T04:24:14;45.10;;;6.80;;
8474;SDS011;4274;52.012;8.448;2023-04-06T04:26:40;44.53;;;6.33;;
8474;SDS011;4274;52.012;8.448;2023-04-06T04:29:06;45.80;;;6.67;;
8474;SDS011;4274;52.012;8.448;2023-04-06T04:31:32;47.67;;;6.93;;
8474;SDS011;4274;52.012;8.448;2023-04-06T04:33:59;47.10;;;6.20;;
8474;SDS011;4274;52.012;8.448;2023-04-06T04:36:25;61.23;;;7.17;;
8474;SDS011;4274;52.012;8.448;2023-04-06T04:38:51;44.80;;;6.60;;
8474;SDS011;4274;52.012;8.448;2023-04-06T04:41:17;46.40;;;6.30;;
8474;SDS011;4274;52.012;8.448;2023-04-06T04:43:43;48.23;;;7.00;;
8474;SDS011;4274;52.012;8.448;2023-04-06T04:46:09;46.03;;;7.10;;
8474;SDS011;4274;52.012;8.448;2023-04-06T04:48:35;46.80;;;6.50;;
8474;SDS011;4274;52.012;8.448;2023-04-06T04:51:01;43.20;;;6.10;;
8474;SDS011;4274;52.012;8.448;2023-04-06T04:53:27;49.10;;;6.47;;
8474;SDS011;4274;52.012;8.448;2023-04-06T04:55:52;46.23;;;6.60;;
8474;SDS011;4274;52.012;8.448;2023-04-06T04:58:18;48.00;;;6.50;;
8474;SDS011;4274;52.012;8.448;2023-04-06T05:00:45;47.17;;;6.80;;
8474;SDS011;4274;52.012;8.448;2023-04-06T05:03:13;44.27;;;6.70;;
8474;SDS011;4274;52.012;8.448;2023-04-06T05:05:49;45.90;;;6.07;;
8474;SDS011;4274;52.012;8.448;2023-04-06T05:08:15;47.13;;;6.50;;
8474;SDS011;4274;52.012;8.448;2023-04-06T05:10:41;46.93;;;6.83;;
8474;SDS011;4274;52.012;8.448;2023-04-06T05:13:07;46.03;;;7.03;;
8474;SDS011;4274;52.012;8.448;2023-04-06T05:15:32;43.40;;;6.07;;
8474;SDS011;4274;52.012;8.448;2023-04-06T05:18:03;46.43;;;6.70;;
8474;SDS011;4274;52.012;8.448;2023-04-06T05:20:29;46.37;;;6.27;;
8474;SDS011;4274;52.012;8.448;2023-04-06T05:22:55;47.90;;;7.20;;
8474;SDS011;4274;52.012;8.448;2023-04-06T05:25:20;44.60;;;6.87;;
8474;SDS011;4274;52.012;8.448;2023-04-06T05:27:46;45.03;;;7.13;;
8474;SDS011;4274;52.012;8.448;2023-04-06T05:30:11;47.73;;;7.47;;
8474;SDS011;4274;52.012;8.448;2023-04-06T05:32:37;47.00;;;7.27;;
8474;SDS011;4274;52.012;8.448;2023-04-06T05:35:03;47.30;;;6.87;;
8474;SDS011;4274;52.012;8.448;2023-04-06T05:37:29;44.63;;;6.03;;
8474;SDS011;4274;52.012;8.448;2023-04-06T05:39:55;45.00;;;7.00;;
8474;SDS011;4274;52.012;8.448;2023-04-06T05:42:20;48.10;;;6.50;;
8474;SDS011;4274;52.012;8.448;2023-04-06T05:44:47;52.17;;;8.57;;
8474;SDS011;4274;52.012;8.448;2023-04-06T05:47:12;45.30;;;6.83;;
8474;SDS011;4274;52.012;8.448;2023-04-06T05:49:38;56.33;;;7.20;;
8474;SDS011;4274;52.012;8.448;2023-04-06T05:52:03;48.50;;;6.80;;
8474;SDS011;4274;52.012;8.448;2023-04-06T05:54:29;46.23;;;7.20;;
8474;SDS011;4274;52.012;8.448;2023-04-06T05:56:55;55.33;;;6.50;;
8474;SDS011;4274;52.012;8.448;2023-04-06T05:59:20;53.93;;;6.33;;
8474;SDS011;4274;52.012;8.448;2023-04-06T06:01:46;44.13;;;6.90;;
8474;SDS011;4274;52.012;8.448;2023-04-06T06:04:12;44.37;;;7.20;;
8474;SDS011;4274;52.012;8.448;2023-04-06T06:06:37;45.97;;;6.87;;
8474;SDS011;4274;52.012;8.448;2023-04-06T06:09:03;45.20;;;6.57;;
8474;SDS011;4274;52.012;8.448;2023-04-06T06:11:29;46.87;;;6.97;;
8474;SDS011;4274;52.012;8.448;2023-04-06T06:13:55;45.47;;;7.00;;
8474;SDS011;4274;52.012;8.448;2023-04-06T06:16:21;47.93;;;7.60;;
8474;SDS011;4274;52.012;8.448;2023-04-06T06:18:46;46.00;;;6.73;;
8474;SDS011;4274;52.012;8.448;2023-04-06T06:21:12;46.37;;;7.07;;
8474;SDS011;4274;52.012;8.448;2023-04-06T06:23:38;49.10;;;6.90;;
8474;SDS011;4274;52.012;8.448;2023-04-06T06:26:04;47.40;;;7.30;;
8474;SDS011;4274;52.012;8.448;2023-04-06T06:28:30;49.60;;;7.20;;
8474;SDS011;4274;52.012;8.448;2023-04-06T06:30:55;48.50;;;6.93;;
8474;SDS011;4274;52.012;8.448;2023-04-06T06:33:21;59.57;;;7.93;;
8474;SDS011;4274;52.012;8.448;2023-04-06T06:35:47;47.30;;;6.93;;
8474;SDS011;4274;52.012;8.448;2023-04-06T06:38:13;53.90;;;6.97;;
8474;SDS011;4274;52.012;8.448;2023-04-06T06:40:39;48.40;;;7.13;;
8474;SDS011;4274;52.012;8.448;2023-04-06T06:43:05;50.57;;;8.17;;
8474;SDS011;4274;52.012;8.448;2023-04-06T06:45:31;47.93;;;6.60;;
8474;SDS011;4274;52.012;8.448;2023-04-06T06:47:57;48.83;;;7.23;;
8474;SDS011;4274;52.012;8.448;2023-04-06T06:50:23;48.80;;;7.10;;
8474;SDS011;4274;52.012;8.448;2023-04-06T06:52:48;48.33;;;7.07;;
8474;SDS011;4274;52.012;8.448;2023-04-06T06:55:14;49.87;;;7.90;;
8474;SDS011;4274;52.012;8.448;2023-04-06T06:57:40;47.60;;;6.80;;
8474;SDS011;4274;52.012;8.448;2023-04-06T07:00:07;50.97;;;7.37;;
8474;SDS011;4274;52.012;8.448;2023-04-06T07:02:34;49.90;;;6.40;;
8474;SDS011;4274;52.012;8.448;2023-04-06T07:05:01;49.33;;;7.00;;
8474;SDS011;4274;52.012;8.448;2023-04-06T07:07:27;47.13;;;6.87;;
8474;SDS011;4274;52.012;8.448;2023-04-06T07:09:53;52.53;;;7.90;;
8474;SDS011;4274;52.012;8.448;2023-04-06T07:12:18;51.80;;;7.90;;
8474;SDS011;4274;52.012;8.448;2023-04-06T07:14:44;50.20;;;7.50;;
8474;SDS011;4274;52.012;8.448;2023-04-06T07:17:10;49.50;;;7.10;;
8474;SDS011;4274;52.012;8.448;2023-04-06T07:19:36;50.67;;;7.30;;
8474;SDS011;4274;52.012;8.448;2023-04-06T07:22:01;48.60;;;7.07;;
8474;SDS011;4274;52.012;8.448;2023-04-06T07:24:28;53.33;;;6.77;;
8474;SDS011;4274;52.012;8.448;2023-04-06T07:26:54;53.83;;;7.03;;
8474;SDS011;4274;52.012;8.448;2023-04-06T07:29:21;50.00;;;7.43;;
8474;SDS011;4274;52.012;8.448;2023-04-06T07:31:47;49.30;;;6.87;;
8474;SDS011;4274;52.012;8.448;2023-04-06T07:34:14;50.87;;;6.73;;
8474;SDS011;4274;52.012;8.448;2023-04-06T07:36:40;50.63;;;7.67;;
8474;SDS011;4274;52.012;8.448;2023-04-06T07:39:05;49.60;;;7.43;;
8474;SDS011;4274;52.012;8.448;2023-04-06T07:41:31;50.53;;;7.37;;
8474;SDS011;4274;52.012;8.448;2023-04-06T07:43:57;50.47;;;7.37;;
8474;SDS011;4274;52.012;8.448;2023-04-06T07:46:22;48.60;;;6.77;;
8474;SDS011;4274;52.012;8.448;2023-04-06T07:48:48;50.87;;;6.67;;
8474;SDS011;4274;52.012;8.448;2023-04-06T07:51:15;48.73;;;7.30;;
8474;SDS011;4274;52.012;8.448;2023-04-06T07:53:42;53.33;;;7.50;;
8474;SDS011;4274;52.012;8.448;2023-04-06T07:56:11;49.83;;;7.00;;
8474;SDS011;4274;52.012;8.448;2023-04-06T07:58:40;53.53;;;6.77;;
8474;SDS011;4274;52.012;8.448;2023-04-06T08:01:06;50.30;;;6.87;;
8474;SDS011;4274;52.012;8.448;2023-04-06T08:03:33;51.17;;;7.20;;
8474;SDS011;4274;52.012;8.448;2023-04-06T08:05:59;51.53;;;7.07;;
8474;SDS011;4274;52.012;8.448;2023-04-06T08:08:25;49.50;;;6.80;;
8474;SDS011;4274;52.012;8.448;2023-04-06T08:10:50;51.63;;;7.50;;
8474;SDS011;4274;52.012;8.448;2023-04-06T08:13:16;53.70;;;7.10;;
8474;SDS011;4274;52.012;8.448;2023-04-06T08:15:42;53.17;;;7.27;;
8474;SDS011;4274;52.012;8.448;2023-04-06T08:18:08;49.00;;;7.27;;
8474;SDS011;4274;52.012;8.448;2023-04-06T08:20:34;50.63;;;7.27;;
8474;SDS011;4274;52.012;8.448;2023-04-06T08:23:00;50.13;;;8.00;;
8474;SDS011;4274;52.012;8.448;2023-04-06T08:25:26;50.60;;;7.47;;
8474;SDS011;4274;52.012;8.448;2023-04-06T08:27:52;49.07;;;7.00;;
8474;SDS011;4274;52.012;8.448;2023-04-06T08:30:17;48.93;;;7.00;;
8474;SDS011;4274;52.012;8.448;2023-04-06T08:32:44;48.17;;;7.00;;
8474;SDS011;4274;52.012;8.448;2023-04-06T08:35:10;54.33;;;7.80;;
8474;SDS011;4274;52.012;8.448;2023-04-06T08:37:36;51.27;;;7.80;;
8474;SDS011;4274;52.012;8.448;2023-04-06T08:40:01;49.33;;;6.90;;
8474;SDS011;4274;52.012;8.448;2023-04-06T08:42:28;48.77;;;7.20;;
8474;SDS011;4274;52.012;8.448;2023-04-06T08:44:57;50.97;;;7.67;;
8474;SDS011;4274;52.012;8.448;2023-04-06T08:47:24;52.60;;;7.17;;
8474;SDS011;4274;52.012;8.448;2023-04-06T08:49:49;51.00;;;7.73;;
8474;SDS011;4274;52.012;8.448;2023-04-06T08:52:17;51.67;;;7.10;;
8474;SDS011;4274;52.012;8.448;2023-04-06T08:54:44;55.30;;;8.30;;
8474;SDS011;4274;52.012;8.448;2023-04-06T08:57:09;52.37;;;7.63;;
8474;SDS011;4274;52.012;8.448;2023-04-06T08:59:36;55.63;;;7.67;;
8474;SDS011;4274;52.012;8.448;2023-04-06T09:02:03;49.97;;;7.43;;
8474;SDS011;4274;52.012;8.448;2023-04-06T09:04:32;54.40;;;7.67;;
8474;SDS011;4274;52.012;8.448;2023-04-06T09:07:00;53.27;;;8.00;;
8474;SDS011;4274;52.012;8.448;2023-04-06T09:09:26;55.20;;;7.73;;
8474;SDS011;4274;52.012;8.448;2023-04-06T09:11:51;54.97;;;7.70;;
8474;SDS011;4274;52.012;8.448;2023-04-06T09:14:17;50.30;;;7.97;;
8474;SDS011;4274;52.012;8.448;2023-04-06T09:17:02;50.47;;;7.23;;
8474;SDS011;4274;52.012;8.448;2023-04-06T09:19:28;54.77;;;9.40;;
8474;SDS011;4274;52.012;8.448;2023-04-06T09:22:06;52.63;;;8.10;;
8474;SDS011;4274;52.012;8.448;2023-04-06T09:27:10;51.13;;;7.80;;
8474;SDS011;4274;52.012;8.448;2023-04-06T09:29:36;51.23;;;7.97;;
8474;SDS011;4274;52.012;8.448;2023-04-06T09:32:02;54.83;;;8.67;;
8474;SDS011;4274;52.012;8.448;2023-04-06T09:34:32;50.40;;;7.70;;
8474;SDS011;4274;52.012;8.448;2023-04-06T09:37:11;53.37;;;8.20;;
8474;SDS011;4274;52.012;8.448;2023-04-06T09:39:40;52.80;;;8.80;;
8474;SDS011;4274;52.012;8.448;2023-04-06T09:42:06;52.87;;;8.30;;
8474;SDS011;4274;52.012;8.448;2023-04-06T09:44:32;54.27;;;7.90;;
8474;SDS011;4274;52.012;8.448;2023-04-06T09:46:57;55.70;;;8.60;;
8474;SDS011;4274;52.012;8.448;2023-04-06T09:49:23;52.83;;;8.67;;
8474;SDS011;4274;52.012;8.448;2023-04-06T09:51:56;58.73;;;8.53;;
8474;SDS011;4274;52.012;8.448;2023-04-06T09:54:25;53.77;;;8.70;;
8474;SDS011;4274;52.012;8.448;2023-04-06T10:02:41;52.47;;;8.33;;
8474;SDS011;4274;52.012;8.448;2023-04-06T10:08:13;54.20;;;8.87;;
8474;SDS011;4274;52.012;8.448;2023-04-06T10:10:40;63.80;;;9.63;;
8474;SDS011;4274;52.012;8.448;2023-04-06T10:13:07;56.23;;;9.40;;
8474;SDS011;4274;52.012;8.448;2023-04-06T10:15:35;52.67;;;9.20;;
8474;SDS011;4274;52.012;8.448;2023-04-06T10:18:02;56.67;;;10.07;;
8474;SDS011;4274;52.012;8.448;2023-04-06T10:23:41;54.40;;;9.37;;
8474;SDS011;4274;52.012;8.448;2023-04-06T10:26:03;60.57;;;10.20;;
8474;SDS011;4274;52.012;8.448;2023-04-06T10:28:33;56.57;;;9.83;;
8474;SDS011;4274;52.012;8.448;2023-04-06T10:31:01;53.00;;;9.33;;
8474;SDS011;4274;52.012;8.448;2023-04-06T10:33:29;55.03;;;9.97;;
8474;SDS011;4274;52.012;8.448;2023-04-06T10:35:55;53.80;;;9.50;;
8474;SDS011;4274;52.012;8.448;2023-04-06T10:38:21;54.07;;;9.27;;
8474;SDS011;4274;52.012;8.448;2023-04-06T10:41:03;52.43;;;8.87;;
8474;SDS011;4274;52.012;8.448;2023-04-06T10:43:34;55.30;;;9.63;;
8474;SDS011;4274;52.012;8.448;2023-04-06T10:46:01;54.00;;;9.30;;
8474;SDS011;4274;52.012;8.448;2023-04-06T10:48:36;53.30;;;9.10;;
8474;SDS011;4274;52.012;8.448;2023-04-06T10:51:06;57.47;;;10.63;;
8474;SDS011;4274;52.012;8.448;2023-04-06T10:53:36;54.53;;;10.17;;
8474;SDS011;4274;52.012;8.448;2023-04-06T10:56:02;58.67;;;10.47;;
8474;SDS011;4274;52.012;8.448;2023-04-06T10:58:29;54.20;;;10.20;;
8474;SDS011;4274;52.012;8.448;2023-04-06T11:00:55;62.57;;;10.90;;
8474;SDS011;4274;52.012;8.448;2023-04-06T11:03:21;55.87;;;9.10;;
8474;SDS011;4274;52.012;8.448;2023-04-06T11:05:48;58.60;;;10.10;;
8474;SDS011;4274;52.012;8.448;2023-04-06T11:08:30;57.20;;;10.07;;
8474;SDS011;4274;52.012;8.448;2023-04-06T11:11:07;53.43;;;9.27;;
8474;SDS011;4274;52.012;8.448;2023-04-06T11:13:44;53.40;;;9.27;;
8474;SDS011;4274;52.012;8.448;2023-04-06T11:16:21;58.57;;;10.17;;
8474;SDS011;4274;52.012;8.448;2023-04-06T11:21:14;55.97;;;9.97;;
8474;SDS011;4274;52.012;8.448;2023-04-06T11:23:39;61.27;;;11.00;;
8474;SDS011;4274;52.012;8.448;2023-04-06T11:26:09;55.20;;;10.03;;
8474;SDS011;4274;52.012;8.448;2023-04-06T11:28:41;56.27;;;10.93;;
8474;SDS011;4274;52.012;8.448;2023-04-06T11:31:10;57.70;;;10.67;;
8474;SDS011;4274;52.012;8.448;2023-04-06T11:33:36;58.27;;;11.20;;
8474;SDS011;4274;52.012;8.448;2023-04-06T11:36:03;59.20;;;11.47;;
8474;SDS011;4274;52.012;8.448;2023-04-06T11:38:30;56.40;;;11.10;;
8474;SDS011;4274;52.012;8.448;2023-04-06T11:40:56;57.67;;;11.10;;
8474;SDS011;4274;52.012;8.448;2023-04-06T11:43:28;57.33;;;11.90;;
8474;SDS011;4274;52.012;8.448;2023-04-06T11:46:01;57.20;;;11.67;;
8474;SDS011;4274;52.012;8.448;2023-04-06T11:48:31;60.10;;;11.50;;
8474;SDS011;4274;52.012;8.448;2023-04-06T11:50:57;59.70;;;11.43;;
8474;SDS011;4274;52.012;8.448;2023-04-06T11:53:26;57.67;;;10.90;;
8474;SDS011;4274;52.012;8.448;2023-04-06T11:55:53;62.33;;;11.83;;
8474;SDS011;4274;52.012;8.448;2023-04-06T11:58:19;57.27;;;11.30;;
8474;SDS011;4274;52.012;8.448;2023-04-06T12:00:45;57.20;;;11.30;;
8474;SDS011;4274;52.012;8.448;2023-04-06T12:03:11;59.57;;;12.03;;
8474;SDS011;4274;52.012;8.448;2023-04-06T12:05:37;57.40;;;10.60;;
8474;SDS011;4274;52.012;8.448;2023-04-06T12:08:03;58.90;;;10.67;;
8474;SDS011;4274;52.012;8.448;2023-04-06T12:10:29;57.27;;;10.20;;
8474;SDS011;4274;52.012;8.448;2023-04-06T12:12:55;64.53;;;11.23;;
8474;SDS011;4274;52.012;8.448;2023-04-06T12:15:20;54.97;;;9.60;;
8474;SDS011;4274;52.012;8.448;2023-04-06T12:17:46;65.00;;;10.10;;
8474;SDS011;4274;52.012;8.448;2023-04-06T12:20:12;60.47;;;8.90;;
8474;SDS011;4274;52.012;8.448;2023-04-06T12:22:38;54.20;;;8.83;;
8474;SDS011;4274;52.012;8.448;2023-04-06T12:25:04;55.90;;;9.20;;
8474;SDS011;4274;52.012;8.448;2023-04-06T12:27:31;55.37;;;9.40;;
8474;SDS011;4274;52.012;8.448;2023-04-06T12:29:57;54.30;;;8.13;;
8474;SDS011;4274;52.012;8.448;2023-04-06T12:32:23;54.77;;;9.27;;
8474;SDS011;4274;52.012;8.448;2023-04-06T12:34:48;59.47;;;9.53;;
8474;SDS011;4274;52.012;8.448;2023-04-06T12:37:14;55.57;;;9.83;;
8474;SDS011;4274;52.012;8.448;2023-04-06T12:39:40;56.20;;;9.53;;
8474;SDS011;4274;52.012;8.448;2023-04-06T12:42:05;55.60;;;9.60;;
8474;SDS011;4274;52.012;8.448;2023-04-06T12:44:31;56.90;;;10.20;;
8474;SDS011;4274;52.012;8.448;2023-04-06T12:46:57;54.07;;;9.13;;
8474;SDS011;4274;52.012;8.448;2023-04-06T12:49:23;55.60;;;10.13;;
8474;SDS011;4274;52.012;8.448;2023-04-06T12:51:48;54.17;;;9.20;;
8474;SDS011;4274;52.012;8.448;2023-04-06T12:54:15;56.73;;;9.60;;
8474;SDS011;4274;52.012;8.448;2023-04-06T12:56:40;54.87;;;9.53;;
8474;SDS011;4274;52.012;8.448;2023-04-06T12:59:06;57.40;;;8.80;;
8474;SDS011;4274;52.012;8.448;2023-04-06T13:01:32;55.00;;;9.03;;
8474;SDS011;4274;52.012;8.448;2023-04-06T13:03:57;55.40;;;10.03;;
8474;SDS011;4274;52.012;8.448;2023-04-06T13:06:24;56.00;;;9.57;;
8474;SDS011;4274;52.012;8.448;2023-04-06T13:08:52;55.30;;;9.20;;
8474;SDS011;4274;52.012;8.448;2023-04-06T13:11:18;55.07;;;9.23;;
8474;SDS011;4274;52.012;8.448;2023-04-06T13:13:45;61.50;;;8.47;;
8474;SDS011;4274;52.012;8.448;2023-04-06T13:16:11;53.73;;;8.07;;
8474;SDS011;4274;52.012;8.448;2023-04-06T13:18:36;54.97;;;9.00;;
8474;SDS011;4274;52.012;8.448;2023-04-06T13:21:03;56.87;;;8.47;;
8474;SDS011;4274;52.012;8.448;2023-04-06T13:23:30;58.20;;;8.90;;
8474;SDS011;4274;52.012;8.448;2023-04-06T13:26:14;54.90;;;8.50;;
8474;SDS011;4274;52.012;8.448;2023-04-06T13:28:41;60.77;;;9.87;;
8474;SDS011;4274;52.012;8.448;2023-04-06T13:31:07;56.90;;;10.43;;
8474;SDS011;4274;52.012;8.448;2023-04-06T13:33:33;56.97;;;9.63;;
8474;SDS011;4274;52.012;8.448;2023-04-06T13:35:59;57.10;;;10.57;;
8474;SDS011;4274;52.012;8.448;2023-04-06T13:38:25;54.27;;;9.27;;
8474;SDS011;4274;52.012;8.448;2023-04-06T13:40:51;55.50;;;9.87;;
8474;SDS011;4274;52.012;8.448;2023-04-06T13:43:16;57.17;;;10.67;;
8474;SDS011;4274;52.012;8.448;2023-04-06T13:45:48;56.27;;;10.00;;
8474;SDS011;4274;52.012;8.448;2023-04-06T13:48:15;56.63;;;10.80;;
8474;SDS011;4274;52.012;8.448;2023-04-06T13:50:40;60.47;;;11.47;;
8474;SDS011;4274;52.012;8.448;2023-04-06T13:53:06;60.13;;;11.50;;
8474;SDS011;4274;52.012;8.448;2023-04-06T13:55:31;56.13;;;10.00;;
8474;SDS011;4274;52.012;8.448;2023-04-06T13:57:57;58.67;;;10.23;;
8474;SDS011;4274;52.012;8.448;2023-04-06T14:00:22;58.17;;;10.47;;
8474;SDS011;4274;52.012;8.448;2023-04-06T14:02:48;61.53;;;10.90;;
8474;SDS011;4274;52.012;8.448;2023-04-06T14:05:14;57.10;;;10.60;;
8474;SDS011;4274;52.012;8.448;2023-04-06T14:07:40;54.70;;;10.20;;
8474;SDS011;4274;52.012;8.448;2023-04-06T14:10:05;57.70;;;10.30;;
8474;SDS011;4274;52.012;8.448;2023-04-06T14:12:38;57.37;;;10.83;;
8474;SDS011;4274;52.012;8.448;2023-04-06T14:15:05;56.87;;;10.30;;
8474;SDS011;4274;52.012;8.448;2023-04-06T14:17:32;56.17;;;10.33;;
8474;SDS011;4274;52.012;8.448;2023-04-06T14:19:57;58.50;;;12.03;;
8474;SDS011;4274;52.012;8.448;2023-04-06T14:22:23;62.80;;;11.30;;
8474;SDS011;4274;52.012;8.448;2023-04-06T14:24:48;58.90;;;11.70;;
8474;SDS011;4274;52.012;8.448;2023-04-06T14:27:14;56.23;;;10.53;;
8474;SDS011;4274;52.012;8.448;2023-04-06T14:29:39;62.50;;;11.93;;
8474;SDS011;4274;52.012;8.448;2023-04-06T14:32:05;58.57;;;12.10;;
8474;SDS011;4274;52.012;8.448;2023-04-06T14:34:30;61.73;;;11.57;;
8474;SDS011;4274;52.012;8.448;2023-04-06T14:36:56;58.13;;;11.97;;
8474;SDS011;4274;52.012;8.448;2023-04-06T14:39:21;58.60;;;11.90;;
8474;SDS011;4274;52.012;8.448;2023-04-06T14:41:47;60.03;;;11.80;;
8474;SDS011;4274;52.012;8.448;2023-04-06T14:44:14;63.10;;;11.90;;
8474;SDS011;4274;52.012;8.448;2023-04-06T14:46:40;57.77;;;11.93;;
8474;SDS011;4274;52.012;8.448;2023-04-06T14:49:05;62.53;;;13.30;;
8474;SDS011;4274;52.012;8.448;2023-04-06T14:51:33;64.37;;;11.50;;
8474;SDS011;4274;52.012;8.448;2023-04-06T14:53:59;60.87;;;13.17;;
8474;SDS011;4274;52.012;8.448;2023-04-06T14:56:25;55.40;;;10.80;;
8474;SDS011;4274;52.012;8.448;2023-04-06T14:58:51;60.10;;;11.93;;
8474;SDS011;4274;52.012;8.448;2023-04-06T15:01:17;58.97;;;11.80;;
8474;SDS011;4274;52.012;8.448;2023-04-06T15:03:44;63.23;;;12.43;;
8474;SDS011;4274;52.012;8.448;2023-04-06T15:06:13;58.70;;;12.00;;
8474;SDS011;4274;52.012;8.448;2023-04-06T15:08:44;59.13;;;11.90;;
8474;SDS011;4274;52.012;8.448;2023-04-06T15:11:10;59.70;;;12.50;;